createdAt,value
2023-04-04T00:00:21.435Z,1.35
2023-04-04T00:02:49.371Z,1.24
2023-04-04T00:05:16.161Z,1.29
2023-04-04T00:07:42.803Z,1.27
2023-04-04T00:10:09.772Z,1.24
2023-04-04T00:12:36.613Z,1.14
2023-04-04T00:15:03.483Z,1.04
2023-04-04T00:17:30.498Z,1.03
2023-04-04T00:19:58.054Z,1.04
2023-04-04T00:22:24.666Z,1.13
2023-04-04T00:24:51.616Z,1.16
2023-04-04T00:27:18.285Z,1.14
2023-04-04T00:29:45.481Z,1.13
2023-04-04T00:32:12.254Z,1.13
2023-04-04T00:34:38.869Z,1.08
2023-04-04T00:37:07.525Z,1.13
2023-04-04T00:39:34.472Z,1.09
2023-04-04T00:42:01.487Z,1.06
2023-04-04T00:44:28.488Z,1.07
2023-04-04T00:46:55.202Z,0.99
2023-04-04T00:49:21.828Z,1.06
2023-04-04T00:51:49.344Z,1.02
2023-04-04T00:54:16.237Z,1.04
2023-04-04T00:56:42.845Z,0.96
2023-04-04T00:59:09.678Z,0.94
2023-04-04T01:01:37.079Z,1.01
2023-04-04T01:04:04.589Z,0.95
2023-04-04T01:06:32.812Z,0.95
2023-04-04T01:08:59.910Z,0.93
2023-04-04T01:11:28.338Z,0.93
2023-04-04T01:13:55.900Z,0.99
2023-04-04T01:16:24.191Z,0.99
2023-04-04T01:18:51.620Z,1.05
2023-04-04T01:21:21.889Z,1.11
2023-04-04T01:24:04.499Z,1.05
2023-04-04T01:26:31.695Z,1.04
2023-04-04T01:28:59.169Z,0.98
2023-04-04T01:31:37.614Z,0.99
2023-04-04T01:34:32.054Z,0.92
2023-04-04T01:37:07.781Z,0.88
2023-04-04T01:39:49.509Z,0.88
2023-04-04T01:42:17.042Z,0.86
2023-04-04T01:44:44.516Z,0.86
2023-04-04T01:47:13.180Z,0.91
2023-04-04T01:49:39.828Z,0.85
2023-04-04T01:52:07.517Z,0.77
2023-04-04T01:54:36.076Z,0.76
2023-04-04T01:57:02.793Z,0.80
2023-04-04T01:59:29.625Z,0.77
2023-04-04T02:01:56.375Z,0.72
2023-04-04T02:04:23.479Z,0.72
2023-04-04T02:06:50.421Z,0.73
2023-04-04T02:09:17.079Z,0.75
2023-04-04T02:11:43.776Z,0.73
2023-04-04T02:14:10.412Z,0.77
2023-04-04T02:16:37.042Z,0.74
2023-04-04T02:19:03.894Z,0.67
2023-04-04T02:21:30.726Z,0.65
2023-04-04T02:23:57.371Z,0.55
2023-04-04T02:26:23.993Z,0.57
2023-04-04T02:28:50.643Z,0.49
2023-04-04T02:31:17.361Z,0.49
2023-04-04T02:33:44.041Z,0.50
2023-04-04T02:36:12.095Z,0.52
2023-04-04T02:38:38.756Z,0.54
2023-04-04T02:41:05.366Z,0.49
2023-04-04T02:43:32.073Z,0.45
2023-04-04T02:46:01.157Z,0.38
2023-04-04T02:48:29.816Z,0.36
2023-04-04T02:50:56.415Z,0.39
2023-04-04T02:53:23.073Z,0.35
2023-04-04T02:55:49.688Z,0.34
2023-04-04T02:58:16.470Z,0.33
2023-04-04T03:00:43.393Z,0.34
2023-04-04T03:03:10.448Z,0.36
2023-04-04T03:05:37.287Z,0.39
2023-04-04T03:08:04.923Z,0.42
2023-04-04T03:10:31.821Z,0.40
2023-04-04T03:12:59.228Z,0.37
2023-04-04T03:15:26.666Z,0.34
2023-04-04T03:17:54.302Z,0.29
2023-04-04T03:20:22.107Z,0.26
2023-04-04T03:22:49.240Z,0.20
2023-04-04T03:25:16.724Z,0.14
2023-04-04T03:27:43.407Z,0.13
2023-04-04T03:30:10.792Z,0.12
2023-04-04T03:32:39.365Z,0.05
2023-04-04T03:35:08.898Z,0.05
2023-04-04T03:37:35.552Z,0.04
2023-04-04T03:40:02.467Z,0.02
2023-04-04T03:42:33.697Z,0.00
2023-04-04T03:45:00.888Z,0.00
2023-04-04T03:47:27.526Z,-0.05
2023-04-04T03:49:56.165Z,-0.05
2023-04-04T03:52:22.848Z,-0.12
2023-04-04T03:54:49.474Z,-0.13
2023-04-04T03:57:16.078Z,-0.13
2023-04-04T03:59:42.692Z,-0.13
2023-04-04T04:02:09.369Z,-0.12
2023-04-04T04:04:36.270Z,-0.14
2023-04-04T04:07:02.856Z,-0.14
2023-04-04T04:09:29.519Z,-0.17
2023-04-04T04:11:56.527Z,-0.23
2023-04-04T04:14:23.179Z,-0.33
2023-04-04T04:16:49.882Z,-0.43
2023-04-04T04:19:16.685Z,-0.49
2023-04-04T04:21:43.966Z,-0.51
2023-04-04T04:24:10.668Z,-0.56
2023-04-04T04:26:37.272Z,-0.57
2023-04-04T04:29:03.900Z,-0.63
2023-04-04T04:31:31.418Z,-0.66
2023-04-04T04:33:58.252Z,-0.65
2023-04-04T04:36:25.779Z,-0.68
2023-04-04T04:38:52.394Z,-0.78
2023-04-04T04:41:19.068Z,-0.77
2023-04-04T04:43:45.875Z,-0.75
2023-04-04T04:46:12.561Z,-0.83
2023-04-04T04:48:39.239Z,-0.83
2023-04-04T04:51:06.208Z,-0.82
2023-04-04T04:53:32.947Z,-0.84
2023-04-04T04:55:59.514Z,-0.93
2023-04-04T04:58:27.609Z,-1.03
2023-04-04T05:00:58.953Z,-1.12
2023-04-04T05:03:26.072Z,-1.14
2023-04-04T05:05:53.538Z,-1.06
2023-04-04T05:08:20.161Z,-1.02
2023-04-04T05:10:46.842Z,-1.02
2023-04-04T05:13:14.079Z,-1.06
2023-04-04T05:15:40.871Z,-1.08
2023-04-04T05:18:07.464Z,-1.04
2023-04-04T05:20:35.373Z,-1.00
2023-04-04T05:23:02.032Z,-0.98
2023-04-04T05:25:29.070Z,-0.97
2023-04-04T05:27:56.417Z,-0.95
2023-04-04T05:30:23.543Z,-0.94
2023-04-04T05:32:51.640Z,-0.95
2023-04-04T05:35:19.012Z,-0.89
2023-04-04T05:37:45.691Z,-0.83
2023-04-04T05:40:12.420Z,-0.82
2023-04-04T05:42:39.072Z,-0.82
2023-04-04T05:45:06.307Z,-0.73
2023-04-04T05:47:33.097Z,-0.66
2023-04-04T05:49:59.708Z,-0.66
2023-04-04T05:52:26.717Z,-0.60
2023-04-04T05:54:53.309Z,-0.56
2023-04-04T05:57:19.945Z,-0.53
2023-04-04T05:59:46.619Z,-0.44
2023-04-04T06:02:13.506Z,-0.39
2023-04-04T06:04:41.111Z,-0.34
2023-04-04T06:07:07.874Z,-0.30
2023-04-04T06:09:36.296Z,-0.27
2023-04-04T06:12:04.748Z,-0.27
2023-04-04T06:14:31.435Z,-0.23
2023-04-04T06:16:59.053Z,-0.15
2023-04-04T06:19:26.061Z,-0.10
2023-04-04T06:21:52.696Z,-0.05
2023-04-04T06:24:19.570Z,0.03
2023-04-04T06:26:46.513Z,0.07
2023-04-04T06:29:13.364Z,0.15
2023-04-04T06:31:40.079Z,0.18
2023-04-04T06:34:06.756Z,0.21
2023-04-04T06:36:33.408Z,0.32
2023-04-04T06:39:00.050Z,0.39
2023-04-04T06:41:27.285Z,0.42
2023-04-04T06:43:53.991Z,0.52
2023-04-04T06:46:20.659Z,0.54
2023-04-04T06:48:47.281Z,0.63
2023-04-04T06:51:13.954Z,0.72
2023-04-04T06:53:40.587Z,0.78
2023-04-04T06:56:08.204Z,0.86
2023-04-04T06:58:34.810Z,0.90
2023-04-04T07:01:02.297Z,0.99
2023-04-04T07:03:29.030Z,1.11
2023-04-04T07:05:55.667Z,1.21
2023-04-04T07:08:22.963Z,1.31
2023-04-04T07:10:49.655Z,1.47
2023-04-04T07:13:16.843Z,1.34
2023-04-04T07:15:48.939Z,1.35
2023-04-04T07:18:16.639Z,1.51
2023-04-04T07:20:43.857Z,1.43
2023-04-04T07:23:13.402Z,1.53
2023-04-04T07:25:40.050Z,1.68
2023-04-04T07:28:12.972Z,1.86
2023-04-04T07:30:40.292Z,1.87
2023-04-04T07:33:07.269Z,1.80
2023-04-04T07:35:34.990Z,1.99
2023-04-04T07:38:01.620Z,2.11
2023-04-04T07:40:28.268Z,2.13
2023-04-04T07:42:54.967Z,1.97
2023-04-04T07:45:24.852Z,2.09
2023-04-04T07:47:51.645Z,2.11
2023-04-04T07:50:18.608Z,2.23
2023-04-04T07:52:52.301Z,2.30
2023-04-04T07:55:20.204Z,2.42
2023-04-04T07:57:47.313Z,2.42
2023-04-04T08:00:14.800Z,2.55
2023-04-04T08:02:43.863Z,2.61
2023-04-04T08:05:10.782Z,2.56
2023-04-04T08:07:37.528Z,2.78
2023-04-04T08:10:04.411Z,2.94
2023-04-04T08:12:31.043Z,3.02
2023-04-04T08:14:57.650Z,3.13
2023-04-04T08:17:24.811Z,3.09
2023-04-04T08:19:51.565Z,3.10
2023-04-04T08:22:18.611Z,3.19
2023-04-04T08:24:46.279Z,3.18
2023-04-04T08:27:14.975Z,3.19
2023-04-04T08:29:41.973Z,3.22
2023-04-04T08:32:09.217Z,3.15
2023-04-04T08:34:35.821Z,3.22
2023-04-04T08:37:02.511Z,3.32
2023-04-04T08:39:29.107Z,3.05
2023-04-04T08:42:06.628Z,3.12
2023-04-04T08:44:34.932Z,3.05
2023-04-04T08:47:06.179Z,3.15
2023-04-04T08:49:38.214Z,3.09
2023-04-04T08:52:06.494Z,2.80
2023-04-04T08:54:35.011Z,2.64
2023-04-04T08:57:02.555Z,2.77
2023-04-04T08:59:29.425Z,2.78
2023-04-04T09:02:14.480Z,2.90
2023-04-04T09:04:48.704Z,2.87
2023-04-04T09:07:22.913Z,2.78
2023-04-04T09:09:50.999Z,2.74
2023-04-04T09:12:18.646Z,2.58
2023-04-04T09:14:47.648Z,2.61
2023-04-04T09:17:14.312Z,2.63
2023-04-04T09:19:40.953Z,2.73
2023-04-04T09:22:09.085Z,2.84
2023-04-04T09:24:40.544Z,2.71
2023-04-04T09:27:11.676Z,2.63
2023-04-04T09:29:40.145Z,2.64
2023-04-04T09:32:11.121Z,2.75
2023-04-04T09:34:37.976Z,2.70
2023-04-04T09:37:05.812Z,2.67
2023-04-04T09:39:34.241Z,2.82
2023-04-04T09:42:01.690Z,2.83
2023-04-04T09:44:33.324Z,2.90
2023-04-04T09:47:31.138Z,3.01
2023-04-04T09:50:01.800Z,3.09
2023-04-04T09:52:33.246Z,3.14
2023-04-04T09:55:01.551Z,3.14
2023-04-04T09:57:32.769Z,3.06
2023-04-04T10:00:07.136Z,3.08
2023-04-04T10:02:34.084Z,3.03
2023-04-04T10:05:06.050Z,3.11
2023-04-04T10:07:34.021Z,2.93
2023-04-04T10:10:06.620Z,2.90
2023-04-04T10:12:33.352Z,2.82
2023-04-04T10:15:01.319Z,3.07
2023-04-04T10:17:37.625Z,3.21
2023-04-04T10:20:12.947Z,3.16
2023-04-04T10:22:40.260Z,3.34
2023-04-04T10:25:07.888Z,3.41
2023-04-04T10:27:34.882Z,3.36
2023-04-04T10:30:02.288Z,3.51
2023-04-04T10:33:15.528Z,3.45
2023-04-04T10:35:47.885Z,3.56
2023-04-04T10:38:14.670Z,3.63
2023-04-04T10:40:47.016Z,3.63
2023-04-04T10:43:15.759Z,3.63
2023-04-04T10:45:43.258Z,3.64
2023-04-04T10:48:10.747Z,3.57
2023-04-04T10:50:39.400Z,3.60
2023-04-04T10:53:07.654Z,3.81
2023-04-04T10:55:35.549Z,3.58
2023-04-04T10:58:02.905Z,3.64
2023-04-04T11:00:29.726Z,3.79
2023-04-04T11:02:58.509Z,3.99
2023-04-04T11:05:26.262Z,4.18
2023-04-04T11:08:07.737Z,4.13
2023-04-04T11:10:44.657Z,4.01
2023-04-04T11:13:29.286Z,3.99
2023-04-04T11:16:04.108Z,3.98
2023-04-04T11:18:42.884Z,3.74
2023-04-04T11:21:14.143Z,3.77
2023-04-04T11:23:49.867Z,3.92
2023-04-04T11:26:36.600Z,3.89
2023-04-04T11:29:09.863Z,4.10
2023-04-04T11:31:40.742Z,4.48
2023-04-04T11:34:15.444Z,5.33
2023-04-04T11:36:43.157Z,5.53
2023-04-04T11:39:26.834Z,5.71
2023-04-04T11:42:13.862Z,5.63
2023-04-04T11:44:43.038Z,5.64
2023-04-04T11:47:11.808Z,5.58
2023-04-04T11:49:41.644Z,5.62
2023-04-04T11:52:14.973Z,6.07
2023-04-04T11:54:43.838Z,5.95
2023-04-04T11:57:18.927Z,5.68
2023-04-04T11:59:48.757Z,6.36
2023-04-04T12:02:27.743Z,7.18
2023-04-04T12:04:55.479Z,7.56
2023-04-04T12:07:24.720Z,7.44
2023-04-04T12:09:52.353Z,7.07
2023-04-04T12:12:19.897Z,7.20
2023-04-04T12:14:47.155Z,7.12
2023-04-04T12:17:16.159Z,7.18
2023-04-04T12:19:43.950Z,7.34
2023-04-04T12:22:10.927Z,7.58
2023-04-04T12:24:37.929Z,7.70
2023-04-04T12:27:06.202Z,7.96
2023-04-04T12:29:36.484Z,8.68
2023-04-04T12:32:04.519Z,8.16
2023-04-04T12:34:33.251Z,8.39
2023-04-04T12:37:01.847Z,8.65
2023-04-04T12:39:30.130Z,7.99
2023-04-04T12:42:05.420Z,7.94
2023-04-04T12:44:31.979Z,7.82
2023-04-04T12:47:04.821Z,7.93
2023-04-04T12:49:39.421Z,7.36
2023-04-04T12:52:07.723Z,6.83
2023-04-04T12:54:38.831Z,6.72
2023-04-04T12:57:07.550Z,6.55
2023-04-04T12:59:37.731Z,6.42
2023-04-04T13:02:09.097Z,6.65
2023-04-04T13:04:35.948Z,7.08
2023-04-04T13:07:03.292Z,6.92
2023-04-04T13:09:30.345Z,7.04
2023-04-04T13:12:04.612Z,7.20
2023-04-04T13:14:56.382Z,6.87
2023-04-04T13:17:23.113Z,6.88
2023-04-04T13:19:50.060Z,7.73
2023-04-04T13:22:16.670Z,8.39
2023-04-04T13:24:43.425Z,8.66
2023-04-04T13:27:10.153Z,8.99
2023-04-04T13:29:36.867Z,9.24
2023-04-04T13:32:03.467Z,9.19
2023-04-04T13:34:31.311Z,9.39
2023-04-04T13:36:57.939Z,8.74
2023-04-04T13:39:25.213Z,8.17
2023-04-04T13:41:51.867Z,8.35
2023-04-04T13:44:18.513Z,8.14
2023-04-04T13:46:45.140Z,8.14
2023-04-04T13:49:11.855Z,7.95
2023-04-04T13:51:38.581Z,8.07
2023-04-04T13:54:05.151Z,8.34
2023-04-04T13:56:31.791Z,7.98
2023-04-04T13:58:58.505Z,7.73
2023-04-04T14:01:25.196Z,8.34
2023-04-04T14:03:51.859Z,8.35
2023-04-04T14:06:18.560Z,8.18
2023-04-04T14:08:46.618Z,8.57
2023-04-04T14:11:14.107Z,9.00
2023-04-04T14:13:40.734Z,8.63
2023-04-04T14:16:08.628Z,8.61
2023-04-04T14:18:35.431Z,8.69
2023-04-04T14:21:03.081Z,8.89
2023-04-04T14:23:33.069Z,9.26
2023-04-04T14:25:59.763Z,9.91
2023-04-04T14:28:27.205Z,9.55
2023-04-04T14:30:53.907Z,9.05
2023-04-04T14:33:20.512Z,7.95
2023-04-04T14:35:47.107Z,7.72
2023-04-04T14:38:13.818Z,8.10
2023-04-04T14:40:40.404Z,7.53
2023-04-04T14:43:07.810Z,7.99
2023-04-04T14:45:34.710Z,8.35
2023-04-04T14:48:02.013Z,8.14
2023-04-04T14:50:28.668Z,7.72
2023-04-04T14:52:56.670Z,7.42
2023-04-04T14:55:23.684Z,6.99
2023-04-04T15:00:21.123Z,7.42
2023-04-04T15:02:47.959Z,7.58
2023-04-04T15:05:18.778Z,7.51
2023-04-04T15:07:46.630Z,7.77
2023-04-04T15:10:13.647Z,7.63
2023-04-04T15:12:40.613Z,7.99
2023-04-04T15:15:08.432Z,7.94
2023-04-04T15:17:35.128Z,7.55
2023-04-04T15:20:01.916Z,7.07
2023-04-04T15:22:28.794Z,7.44
2023-04-04T15:24:56.702Z,7.48
2023-04-04T15:27:23.584Z,7.36
2023-04-04T15:29:50.288Z,7.99
2023-04-04T15:32:17.174Z,8.06
2023-04-04T15:34:43.834Z,7.59
2023-04-04T15:37:10.673Z,7.19
2023-04-04T15:39:49.662Z,7.09
2023-04-04T15:42:18.894Z,7.45
2023-04-04T15:44:45.638Z,7.47
2023-04-04T15:47:12.325Z,7.26
2023-04-04T15:49:39.420Z,6.97
2023-04-04T15:52:06.225Z,6.96
2023-04-04T15:54:33.014Z,6.97
2023-04-04T15:56:59.881Z,6.68
2023-04-04T15:59:27.393Z,6.56
2023-04-04T16:01:54.285Z,6.52
2023-04-04T16:04:21.098Z,6.82
2023-04-04T16:06:47.881Z,6.76
2023-04-04T16:09:14.577Z,6.63
2023-04-04T16:11:41.334Z,6.47
2023-04-04T16:14:09.451Z,6.26
2023-04-04T16:16:36.709Z,6.32
2023-04-04T16:19:03.384Z,6.21
2023-04-04T16:21:31.241Z,6.37
2023-04-04T16:23:58.114Z,6.35
2023-04-04T16:26:24.942Z,6.00
2023-04-04T16:28:51.766Z,5.88
2023-04-04T16:31:18.586Z,5.76
2023-04-04T16:33:45.468Z,5.58
2023-04-04T16:36:12.559Z,5.51
2023-04-04T16:38:39.706Z,5.23
2023-04-04T16:41:06.551Z,5.27
2023-04-04T16:43:33.342Z,5.07
2023-04-04T16:45:59.967Z,5.16
2023-04-04T16:48:26.734Z,4.92
2023-04-04T16:50:54.745Z,4.73
2023-04-04T16:53:21.499Z,4.89
2023-04-04T16:55:48.254Z,4.79
2023-04-04T16:58:15.095Z,4.66
2023-04-04T17:00:41.980Z,4.63
2023-04-04T17:03:08.999Z,4.55
2023-04-04T17:05:36.278Z,4.40
2023-04-04T17:08:02.961Z,4.40
2023-04-04T17:10:29.683Z,4.38
2023-04-04T17:12:56.602Z,4.39
2023-04-04T17:15:23.347Z,4.29
2023-04-04T17:17:49.950Z,4.40
2023-04-04T17:20:19.551Z,4.36
2023-04-04T17:22:47.399Z,4.22
2023-04-04T17:25:14.235Z,4.14
2023-04-04T17:27:44.460Z,4.10
2023-04-04T17:30:11.948Z,3.95
2023-04-04T17:32:39.231Z,3.94
2023-04-04T17:35:07.043Z,3.89
2023-04-04T17:37:34.245Z,3.93
2023-04-04T17:40:04.443Z,3.89
2023-04-04T17:42:32.182Z,3.84
2023-04-04T17:44:59.006Z,3.82
2023-04-04T17:47:26.359Z,3.79
2023-04-04T17:49:54.229Z,3.73
2023-04-04T17:52:21.590Z,3.67
2023-04-04T17:54:48.842Z,3.63
2023-04-04T17:57:15.727Z,3.59
2023-04-04T17:59:42.750Z,3.56
2023-04-04T18:02:09.400Z,3.53
2023-04-04T18:04:37.998Z,3.46
2023-04-04T18:07:06.442Z,3.35
2023-04-04T18:09:33.050Z,3.30
2023-04-04T18:12:00.935Z,3.30
2023-04-04T18:14:27.628Z,3.27
2023-04-04T18:16:54.415Z,3.20
2023-04-04T18:19:21.278Z,3.14
2023-04-04T18:21:51.607Z,3.01
2023-04-04T18:24:18.302Z,2.87
2023-04-04T18:26:45.193Z,2.79
2023-04-04T18:29:14.757Z,2.72
2023-04-04T18:31:41.775Z,2.66
2023-04-04T18:34:08.662Z,2.62
2023-04-04T18:36:36.480Z,2.58
2023-04-04T18:39:03.681Z,2.54
2023-04-04T18:41:30.720Z,2.49
2023-04-04T18:43:57.369Z,2.44
2023-04-04T18:46:24.249Z,2.35
2023-04-04T18:48:51.082Z,2.28
2023-04-04T18:51:17.682Z,2.25
2023-04-04T18:53:44.386Z,2.21
2023-04-04T18:56:11.180Z,2.21
2023-04-04T18:58:37.803Z,2.19
2023-04-04T19:01:04.451Z,2.11
2023-04-04T19:03:40.671Z,2.04
2023-04-04T19:06:10.280Z,1.96
2023-04-04T19:08:42.700Z,1.82
2023-04-04T19:11:10.678Z,1.76
2023-04-04T19:13:37.471Z,1.68
2023-04-04T19:16:04.842Z,1.60
2023-04-04T19:18:31.524Z,1.53
2023-04-04T19:20:58.832Z,1.46
2023-04-04T19:23:25.636Z,1.40
2023-04-04T19:25:52.996Z,1.34
2023-04-04T19:28:20.104Z,1.30
2023-04-04T19:30:48.920Z,1.21
2023-04-04T19:33:21.932Z,1.15
2023-04-04T19:35:57.161Z,1.14
2023-04-04T19:38:29.454Z,1.13
2023-04-04T19:40:59.258Z,1.05
2023-04-04T19:43:27.003Z,1.03
2023-04-04T19:46:00.256Z,0.93
2023-04-04T19:48:42.851Z,0.85
2023-04-04T19:51:29.611Z,0.76
2023-04-04T19:53:58.511Z,0.68
2023-04-04T19:56:27.484Z,0.62
2023-04-04T19:58:56.737Z,0.55
2023-04-04T20:01:25.858Z,0.53
2023-04-04T20:03:52.473Z,0.52
2023-04-04T20:06:28.990Z,0.48
2023-04-04T20:08:57.363Z,0.44
2023-04-04T20:11:34.699Z,0.36
2023-04-04T20:14:10.010Z,0.33
2023-04-04T20:16:37.243Z,0.29
2023-04-04T20:19:06.795Z,0.13
2023-04-04T20:21:35.686Z,-0.03
2023-04-04T20:24:06.025Z,0.04
2023-04-04T20:26:36.013Z,0.05
2023-04-04T20:29:06.611Z,0.02
2023-04-04T20:31:48.308Z,0.02
2023-04-04T20:34:33.851Z,-0.04
2023-04-04T20:37:02.853Z,-0.09
2023-04-04T20:39:41.585Z,-0.11
2023-04-04T20:42:19.893Z,-0.11
2023-04-04T20:44:47.146Z,-0.10
2023-04-04T20:47:51.251Z,-0.12
2023-04-04T20:50:17.947Z,-0.16
2023-04-04T20:52:58.826Z,-0.23
2023-04-04T20:55:28.296Z,-0.24
2023-04-04T20:57:56.842Z,-0.32
2023-04-04T21:00:23.715Z,-0.35
2023-04-04T21:02:50.459Z,-0.41
2023-04-04T21:05:31.904Z,-0.43
2023-04-04T21:08:00.419Z,-0.45
2023-04-04T21:10:27.040Z,-0.46
2023-04-04T21:12:58.432Z,-0.47
2023-04-04T21:15:30.072Z,-0.48
2023-04-04T21:17:59.469Z,-0.51
2023-04-04T21:20:41.324Z,-0.56
2023-04-04T21:23:23.211Z,-0.63
2023-04-04T21:25:49.956Z,-0.65
2023-04-04T21:28:16.562Z,-0.69
2023-04-04T21:30:45.182Z,-0.66
2023-04-04T21:33:18.994Z,-0.69
2023-04-04T21:35:48.132Z,-0.72
2023-04-04T21:38:32.837Z,-0.67
2023-04-04T21:41:12.850Z,-0.68
2023-04-04T21:43:39.436Z,-0.72
2023-04-04T21:46:06.136Z,-0.74
2023-04-04T21:48:32.797Z,-0.76
2023-04-04T21:50:59.409Z,-0.78
2023-04-04T21:53:26.071Z,-0.81
2023-04-04T21:55:52.710Z,-0.81
2023-04-04T21:58:19.325Z,-0.82
2023-04-04T22:00:46.366Z,-0.84
2023-04-04T22:03:13.104Z,-0.84
2023-04-04T22:05:39.785Z,-0.86
2023-04-04T22:08:06.691Z,-0.88
2023-04-04T22:10:33.647Z,-0.89
2023-04-04T22:13:00.388Z,-0.95
2023-04-04T22:15:29.895Z,-0.97
2023-04-04T22:18:03.681Z,-1.03
2023-04-04T22:20:32.364Z,-1.04
2023-04-04T22:22:59.930Z,-1.06
2023-04-04T22:25:27.285Z,-1.08
2023-04-04T22:27:54.030Z,-1.06
2023-04-04T22:30:21.845Z,-1.04
2023-04-04T22:32:48.586Z,-1.03
2023-04-04T22:35:15.268Z,-1.06
2023-04-04T22:37:41.929Z,-1.13
2023-04-04T22:40:13.179Z,-1.15
2023-04-04T22:42:39.903Z,-1.17
2023-04-04T22:45:07.171Z,-1.20
2023-04-04T22:47:33.854Z,-1.25
2023-04-04T22:50:04.725Z,-1.26
2023-04-04T22:52:32.077Z,-1.26
2023-04-04T22:54:59.652Z,-1.29
2023-04-04T22:57:26.269Z,-1.29
2023-04-04T22:59:52.921Z,-1.31
2023-04-04T23:02:19.552Z,-1.33
2023-04-04T23:04:46.205Z,-1.36
2023-04-04T23:07:12.942Z,-1.36
2023-04-04T23:09:39.540Z,-1.35
2023-04-04T23:12:06.580Z,-1.34
2023-04-04T23:14:38.722Z,-1.36
2023-04-04T23:17:06.986Z,-1.44
2023-04-04T23:19:33.624Z,-1.44
2023-04-04T23:22:00.641Z,-1.44
2023-04-04T23:24:27.524Z,-1.41
2023-04-04T23:26:54.223Z,-1.43
2023-04-04T23:29:20.896Z,-1.44
2023-04-04T23:31:47.534Z,-1.44
2023-04-04T23:34:14.194Z,-1.46
2023-04-04T23:36:40.957Z,-1.44
2023-04-04T23:39:07.624Z,-1.41
2023-04-04T23:41:34.233Z,-1.42
2023-04-04T23:44:01.126Z,-1.45
2023-04-04T23:46:30.370Z,-1.54
2023-04-04T23:48:57.055Z,-1.60
2023-04-04T23:51:25.688Z,-1.65
2023-04-04T23:53:52.641Z,-1.62
2023-04-04T23:56:19.219Z,-1.67
2023-04-04T23:58:45.859Z,-1.75
